sensor_id;sensor_type;location;lat;lon;timestamp;pressure;altitude;pressure_sealevel;temperature;humidity
42603;BME280;28233;55.748;48.752;2023-04-04T00:00:47;99332.19;;;6.74;47.52
42603;BME280;28233;55.748;48.752;2023-04-04T00:02:50;99328.94;;;6.72;47.33
42603;BME280;28233;55.748;48.752;2023-04-04T00:04:53;99333.09;;;6.70;47.27
42603;BME280;28233;55.748;48.752;2023-04-04T00:06:56;99337.56;;;6.66;47.41
42603;BME280;28233;55.748;48.752;2023-04-04T00:09:00;99327.53;;;6.61;48.00
42603;BME280;28233;55.748;48.752;2023-04-04T00:11:03;99335.72;;;6.61;48.29
42603;BME280;28233;55.748;48.752;2023-04-04T00:13:09;99333.00;;;6.61;48.04
42603;BME280;28233;55.748;48.752;2023-04-04T00:15:12;99328.63;;;6.60;48.34
42603;BME280;28233;55.748;48.752;2023-04-04T00:17:15;99328.13;;;6.58;48.23
42603;BME280;28233;55.748;48.752;2023-04-04T00:19:18;99329.25;;;6.57;48.14
42603;BME280;28233;55.748;48.752;2023-04-04T00:21:21;99330.84;;;6.58;48.38
42603;BME280;28233;55.748;48.752;2023-04-04T00:23:26;99339.03;;;6.58;48.34
42603;BME280;28233;55.748;48.752;2023-04-04T00:25:29;99327.03;;;6.59;48.41
42603;BME280;28233;55.748;48.752;2023-04-04T00:27:32;99324.88;;;6.56;48.27
42603;BME280;28233;55.748;48.752;2023-04-04T00:29:35;99336.03;;;6.60;48.39
42603;BME280;28233;55.748;48.752;2023-04-04T00:31:38;99332.47;;;6.59;48.82
42603;BME280;28233;55.748;48.752;2023-04-04T00:33:41;99337.94;;;6.59;48.83
42603;BME280;28233;55.748;48.752;2023-04-04T00:35:44;99333.56;;;6.58;48.87
42603;BME280;28233;55.748;48.752;2023-04-04T00:37:46;99333.38;;;6.54;49.08
42603;BME280;28233;55.748;48.752;2023-04-04T00:39:49;99326.09;;;6.50;48.96
42603;BME280;28233;55.748;48.752;2023-04-04T00:41:52;99324.16;;;6.50;49.21
42603;BME280;28233;55.748;48.752;2023-04-04T00:43:55;99329.34;;;6.52;49.12
42603;BME280;28233;55.748;48.752;2023-04-04T00:45:58;99331.56;;;6.50;49.67
42603;BME280;28233;55.748;48.752;2023-04-04T00:48:03;99329.91;;;6.49;49.60
42603;BME280;28233;55.748;48.752;2023-04-04T00:50:07;99328.31;;;6.48;49.34
42603;BME280;28233;55.748;48.752;2023-04-04T00:52:10;99340.63;;;6.45;49.34
42603;BME280;28233;55.748;48.752;2023-04-04T00:54:12;99332.03;;;6.38;49.52
42603;BME280;28233;55.748;48.752;2023-04-04T00:56:16;99340.59;;;6.31;49.66
42603;BME280;28233;55.748;48.752;2023-04-04T00:58:19;99342.28;;;6.27;49.63
42603;BME280;28233;55.748;48.752;2023-04-04T01:00:22;99340.97;;;6.25;50.29
42603;BME280;28233;55.748;48.752;2023-04-04T01:02:24;99340.75;;;6.21;50.24
42603;BME280;28233;55.748;48.752;2023-04-04T01:04:28;99344.06;;;6.18;50.54
42603;BME280;28233;55.748;48.752;2023-04-04T01:06:31;99344.66;;;6.15;50.59
42603;BME280;28233;55.748;48.752;2023-04-04T01:08:35;99346.06;;;6.12;51.11
42603;BME280;28233;55.748;48.752;2023-04-04T01:10:41;99340.38;;;6.09;50.92
42603;BME280;28233;55.748;48.752;2023-04-04T01:12:44;99346.72;;;6.04;51.52
42603;BME280;28233;55.748;48.752;2023-04-04T01:14:47;99351.16;;;6.00;51.88
42603;BME280;28233;55.748;48.752;2023-04-04T01:16:50;99345.19;;;5.98;51.47
42603;BME280;28233;55.748;48.752;2023-04-04T01:18:55;99346.88;;;5.94;51.74
42603;BME280;28233;55.748;48.752;2023-04-04T01:21:00;99350.13;;;5.96;51.86
42603;BME280;28233;55.748;48.752;2023-04-04T01:23:05;99347.13;;;5.98;51.86
42603;BME280;28233;55.748;48.752;2023-04-04T01:25:08;99351.44;;;5.99;52.22
42603;BME280;28233;55.748;48.752;2023-04-04T01:27:13;99350.66;;;5.98;52.18
42603;BME280;28233;55.748;48.752;2023-04-04T01:29:16;99351.75;;;5.97;52.39
42603;BME280;28233;55.748;48.752;2023-04-04T01:33:45;99349.94;;;5.87;53.23
42603;BME280;28233;55.748;48.752;2023-04-04T01:36:09;99341.31;;;5.80;52.94
42603;BME280;28233;55.748;48.752;2023-04-04T01:38:29;99341.41;;;5.75;53.77
42603;BME280;28233;55.748;48.752;2023-04-04T01:40:37;99355.09;;;5.70;53.31
42603;BME280;28233;55.748;48.752;2023-04-04T01:42:40;99343.97;;;5.66;53.77
42603;BME280;28233;55.748;48.752;2023-04-04T01:44:45;99354.34;;;5.64;54.08
42603;BME280;28233;55.748;48.752;2023-04-04T01:46:54;99352.44;;;5.65;54.20
42603;BME280;28233;55.748;48.752;2023-04-04T01:48:57;99354.41;;;5.59;53.98
42603;BME280;28233;55.748;48.752;2023-04-04T01:51:00;99355.53;;;5.58;54.10
42603;BME280;28233;55.748;48.752;2023-04-04T01:53:03;99356.13;;;5.55;54.53
42603;BME280;28233;55.748;48.752;2023-04-04T01:55:06;99354.78;;;5.53;54.82
42603;BME280;28233;55.748;48.752;2023-04-04T01:57:09;99350.78;;;5.45;55.07
42603;BME280;28233;55.748;48.752;2023-04-04T01:59:12;99350.50;;;5.46;55.74
42603;BME280;28233;55.748;48.752;2023-04-04T02:01:15;99353.75;;;5.48;55.36
42603;BME280;28233;55.748;48.752;2023-04-04T02:03:18;99343.41;;;5.45;55.47
42603;BME280;28233;55.748;48.752;2023-04-04T02:05:20;99348.31;;;5.48;55.82
42603;BME280;28233;55.748;48.752;2023-04-04T02:07:23;99351.03;;;5.48;55.33
42603;BME280;28233;55.748;48.752;2023-04-04T02:09:26;99352.34;;;5.51;55.99
42603;BME280;28233;55.748;48.752;2023-04-04T02:11:29;99356.69;;;5.52;55.85
42603;BME280;28233;55.748;48.752;2023-04-04T02:13:32;99345.00;;;5.51;55.60
42603;BME280;28233;55.748;48.752;2023-04-04T02:15:35;99354.28;;;5.50;56.01
42603;BME280;28233;55.748;48.752;2023-04-04T02:17:38;99349.91;;;5.49;55.82
42603;BME280;28233;55.748;48.752;2023-04-04T02:19:41;99349.69;;;5.46;56.37
42603;BME280;28233;55.748;48.752;2023-04-04T02:21:44;99357.88;;;5.46;56.08
42603;BME280;28233;55.748;48.752;2023-04-04T02:23:46;99353.81;;;5.43;56.64
42603;BME280;28233;55.748;48.752;2023-04-04T02:25:50;99360.63;;;5.41;56.96
42603;BME280;28233;55.748;48.752;2023-04-04T02:27:53;99348.13;;;5.40;56.90
42603;BME280;28233;55.748;48.752;2023-04-04T02:29:56;99355.19;;;5.41;56.76
42603;BME280;28233;55.748;48.752;2023-04-04T02:31:58;99357.91;;;5.41;57.02
42603;BME280;28233;55.748;48.752;2023-04-04T02:34:01;99348.13;;;5.40;57.82
42603;BME280;28233;55.748;48.752;2023-04-04T02:36:04;99341.56;;;5.41;57.93
42603;BME280;28233;55.748;48.752;2023-04-04T02:38:07;99351.59;;;5.45;57.79
42603;BME280;28233;55.748;48.752;2023-04-04T02:40:10;99355.44;;;5.44;58.01
42603;BME280;28233;55.748;48.752;2023-04-04T02:42:13;99351.91;;;5.44;58.15
42603;BME280;28233;55.748;48.752;2023-04-04T02:44:16;99353.50;;;5.45;58.19
42603;BME280;28233;55.748;48.752;2023-04-04T02:46:19;99354.31;;;5.45;58.17
42603;BME280;28233;55.748;48.752;2023-04-04T02:48:23;99352.44;;;5.46;58.44
42603;BME280;28233;55.748;48.752;2023-04-04T02:50:27;99340.47;;;5.42;58.71
42603;BME280;28233;55.748;48.752;2023-04-04T02:52:29;99351.59;;;5.45;59.09
42603;BME280;28233;55.748;48.752;2023-04-04T02:54:32;99345.06;;;5.46;59.18
42603;BME280;28233;55.748;48.752;2023-04-04T02:56:36;99344.25;;;5.46;59.32
42603;BME280;28233;55.748;48.752;2023-04-04T02:58:39;99346.38;;;5.49;59.00
42603;BME280;28233;55.748;48.752;2023-04-04T03:00:43;99349.63;;;5.51;59.53
42603;BME280;28233;55.748;48.752;2023-04-04T03:02:55;99350.44;;;5.51;59.78
42603;BME280;28233;55.748;48.752;2023-04-04T03:04:59;99348.22;;;5.54;59.56
42603;BME280;28233;55.748;48.752;2023-04-04T03:07:02;99349.28;;;5.58;59.26
42603;BME280;28233;55.748;48.752;2023-04-04T03:09:05;99355.75;;;5.62;59.00
42603;BME280;28233;55.748;48.752;2023-04-04T03:11:08;99354.34;;;5.64;59.52
42603;BME280;28233;55.748;48.752;2023-04-04T03:13:11;99336.66;;;5.62;59.14
42603;BME280;28233;55.748;48.752;2023-04-04T03:15:14;99348.00;;;5.69;59.16
42603;BME280;28233;55.748;48.752;2023-04-04T03:17:17;99360.41;;;5.80;58.79
42603;BME280;28233;55.748;48.752;2023-04-04T03:19:20;99353.28;;;5.84;58.87
42603;BME280;28233;55.748;48.752;2023-04-04T03:21:22;99360.28;;;5.90;58.79
42603;BME280;28233;55.748;48.752;2023-04-04T03:23:25;99357.50;;;5.96;58.80
42603;BME280;28233;55.748;48.752;2023-04-04T03:25:28;99363.41;;;6.03;59.22
42603;BME280;28233;55.748;48.752;2023-04-04T03:27:30;99369.06;;;6.06;59.19
42603;BME280;28233;55.748;48.752;2023-04-04T03:29:36;99365.16;;;6.12;59.11
42603;BME280;28233;55.748;48.752;2023-04-04T03:31:39;99363.75;;;6.15;59.31
42603;BME280;28233;55.748;48.752;2023-04-04T03:33:42;99363.09;;;6.23;58.83
42603;BME280;28233;55.748;48.752;2023-04-04T03:35:46;99359.97;;;6.30;59.08
42603;BME280;28233;55.748;48.752;2023-04-04T03:37:49;99363.44;;;6.35;58.84
42603;BME280;28233;55.748;48.752;2023-04-04T03:39:52;99360.03;;;6.44;58.81
42603;BME280;28233;55.748;48.752;2023-04-04T03:41:55;99358.31;;;6.48;58.50
42603;BME280;28233;55.748;48.752;2023-04-04T03:43:59;99351.38;;;6.55;58.61
42603;BME280;28233;55.748;48.752;2023-04-04T03:46:03;99361.91;;;6.62;58.76
42603;BME280;28233;55.748;48.752;2023-04-04T03:48:06;99364.25;;;6.69;58.53
42603;BME280;28233;55.748;48.752;2023-04-04T03:50:09;99360.91;;;6.72;58.44
42603;BME280;28233;55.748;48.752;2023-04-04T03:52:12;99373.91;;;6.80;58.45
42603;BME280;28233;55.748;48.752;2023-04-04T03:54:14;99366.41;;;6.86;58.45
42603;BME280;28233;55.748;48.752;2023-04-04T03:56:18;99369.56;;;6.93;58.45
42603;BME280;28233;55.748;48.752;2023-04-04T03:58:22;99368.88;;;7.01;58.19
42603;BME280;28233;55.748;48.752;2023-04-04T04:00:25;99364.41;;;7.05;58.43
42603;BME280;28233;55.748;48.752;2023-04-04T04:02:28;99368.06;;;7.14;57.85
42603;BME280;28233;55.748;48.752;2023-04-04T04:04:31;99372.84;;;7.23;57.35
42603;BME280;28233;55.748;48.752;2023-04-04T04:06:33;99368.38;;;7.27;57.47
42603;BME280;28233;55.748;48.752;2023-04-04T04:08:36;99366.53;;;7.36;57.30
42603;BME280;28233;55.748;48.752;2023-04-04T04:10:39;99374.97;;;7.39;57.31
42603;BME280;28233;55.748;48.752;2023-04-04T04:12:42;99376.16;;;7.47;57.04
42603;BME280;28233;55.748;48.752;2023-04-04T04:14:45;99376.88;;;7.53;56.66
42603;BME280;28233;55.748;48.752;2023-04-04T04:16:48;99368.88;;;7.56;56.99
42603;BME280;28233;55.748;48.752;2023-04-04T04:18:51;99371.50;;;7.61;56.69
42603;BME280;28233;55.748;48.752;2023-04-04T04:20:57;99376.88;;;7.67;56.65
42603;BME280;28233;55.748;48.752;2023-04-04T04:23:00;99371.06;;;7.68;56.84
42603;BME280;28233;55.748;48.752;2023-04-04T04:25:03;99366.63;;;7.72;56.99
42603;BME280;28233;55.748;48.752;2023-04-04T04:27:06;99361.16;;;7.72;56.73
42603;BME280;28233;55.748;48.752;2023-04-04T04:29:09;99368.03;;;7.83;56.44
42603;BME280;28233;55.748;48.752;2023-04-04T04:31:12;99370.94;;;7.87;56.49
42603;BME280;28233;55.748;48.752;2023-04-04T04:33:15;99360.34;;;7.86;56.01
42603;BME280;28233;55.748;48.752;2023-04-04T04:35:18;99364.75;;;7.95;56.45
42603;BME280;28233;55.748;48.752;2023-04-04T04:37:20;99368.19;;;8.01;56.66
42603;BME280;28233;55.748;48.752;2023-04-04T04:39:23;99361.47;;;8.07;56.71
42603;BME280;28233;55.748;48.752;2023-04-04T04:41:26;99367.34;;;8.14;55.96
42603;BME280;28233;55.748;48.752;2023-04-04T04:43:30;99363.84;;;8.22;55.77
42603;BME280;28233;55.748;48.752;2023-04-04T04:45:33;99370.84;;;8.29;55.56
42603;BME280;28233;55.748;48.752;2023-04-04T04:47:36;99375.56;;;8.37;55.30
42603;BME280;28233;55.748;48.752;2023-04-04T04:49:38;99360.75;;;8.38;55.45
42603;BME280;28233;55.748;48.752;2023-04-04T04:51:41;99363.97;;;8.54;55.28
42603;BME280;28233;55.748;48.752;2023-04-04T04:53:44;99367.25;;;8.64;55.46
42603;BME280;28233;55.748;48.752;2023-04-04T04:55:47;99363.44;;;8.74;54.81
42603;BME280;28233;55.748;48.752;2023-04-04T04:57:50;99367.03;;;8.83;54.72
42603;BME280;28233;55.748;48.752;2023-04-04T04:59:52;99370.47;;;8.89;55.02
42603;BME280;28233;55.748;48.752;2023-04-04T05:01:55;99363.72;;;8.95;54.50
42603;BME280;28233;55.748;48.752;2023-04-04T05:03:58;99364.88;;;9.03;54.29
42603;BME280;28233;55.748;48.752;2023-04-04T05:06:01;99369.59;;;9.11;54.22
42603;BME280;28233;55.748;48.752;2023-04-04T05:08:04;99366.06;;;9.19;53.81
42603;BME280;28233;55.748;48.752;2023-04-04T05:10:07;99374.66;;;9.26;53.92
42603;BME280;28233;55.748;48.752;2023-04-04T05:12:10;99374.38;;;9.37;53.38
42603;BME280;28233;55.748;48.752;2023-04-04T05:14:13;99370.22;;;9.48;53.14
42603;BME280;28233;55.748;48.752;2023-04-04T05:16:16;99372.66;;;9.58;52.76
42603;BME280;28233;55.748;48.752;2023-04-04T05:18:19;99372.84;;;9.70;52.78
42603;BME280;28233;55.748;48.752;2023-04-04T05:20:22;99379.66;;;9.82;52.70
42603;BME280;28233;55.748;48.752;2023-04-04T05:22:24;99379.19;;;9.88;52.63
42603;BME280;28233;55.748;48.752;2023-04-04T05:24:27;99383.25;;;10.00;52.20
42603;BME280;28233;55.748;48.752;2023-04-04T05:26:30;99376.16;;;10.07;51.73
42603;BME280;28233;55.748;48.752;2023-04-04T05:28:33;99377.94;;;10.12;51.56
42603;BME280;28233;55.748;48.752;2023-04-04T05:30:36;99376.31;;;10.20;52.11
42603;BME280;28233;55.748;48.752;2023-04-04T05:32:39;99384.38;;;10.25;51.47
42603;BME280;28233;55.748;48.752;2023-04-04T05:34:41;99375.53;;;10.28;51.03
42603;BME280;28233;55.748;48.752;2023-04-04T05:36:44;99379.56;;;10.39;51.29
42603;BME280;28233;55.748;48.752;2023-04-04T05:38:47;99379.06;;;10.46;51.21
42603;BME280;28233;55.748;48.752;2023-04-04T05:40:52;99388.44;;;10.53;50.87
42603;BME280;28233;55.748;48.752;2023-04-04T05:42:56;99382.94;;;10.62;50.45
42603;BME280;28233;55.748;48.752;2023-04-04T05:44:59;99379.69;;;10.69;50.66
42603;BME280;28233;55.748;48.752;2023-04-04T05:47:02;99380.69;;;10.73;50.25
42603;BME280;28233;55.748;48.752;2023-04-04T05:49:05;99376.59;;;10.79;49.77
42603;BME280;28233;55.748;48.752;2023-04-04T05:51:07;99379.81;;;10.90;49.79
42603;BME280;28233;55.748;48.752;2023-04-04T05:53:13;99379.31;;;10.96;50.09
42603;BME280;28233;55.748;48.752;2023-04-04T05:55:15;99378.66;;;11.08;49.42
42603;BME280;28233;55.748;48.752;2023-04-04T05:57:18;99390.25;;;11.14;49.36
42603;BME280;28233;55.748;48.752;2023-04-04T05:59:21;99385.84;;;11.21;49.50
42603;BME280;28233;55.748;48.752;2023-04-04T06:01:25;99387.47;;;11.31;49.13
42603;BME280;28233;55.748;48.752;2023-04-04T06:03:28;99380.31;;;11.39;48.59
42603;BME280;28233;55.748;48.752;2023-04-04T06:05:31;99380.91;;;11.45;48.44
42603;BME280;28233;55.748;48.752;2023-04-04T06:07:34;99385.44;;;11.49;47.98
42603;BME280;28233;55.748;48.752;2023-04-04T06:09:36;99392.19;;;11.60;47.41
42603;BME280;28233;55.748;48.752;2023-04-04T06:11:39;99390.03;;;11.66;47.25
42603;BME280;28233;55.748;48.752;2023-04-04T06:13:42;99389.38;;;11.69;47.08
42603;BME280;28233;55.748;48.752;2023-04-04T06:15:45;99388.03;;;11.75;46.63
42603;BME280;28233;55.748;48.752;2023-04-04T06:17:48;99386.41;;;11.83;46.48
42603;BME280;28233;55.748;48.752;2023-04-04T06:19:51;99392.84;;;11.87;46.01
42603;BME280;28233;55.748;48.752;2023-04-04T06:21:55;99395.56;;;11.96;45.34
42603;BME280;28233;55.748;48.752;2023-04-04T06:23:58;99395.63;;;12.08;45.69
42603;BME280;28233;55.748;48.752;2023-04-04T06:26:02;99395.25;;;12.18;45.87
42603;BME280;28233;55.748;48.752;2023-04-04T06:28:05;99386.91;;;12.27;45.31
42603;BME280;28233;55.748;48.752;2023-04-04T06:30:08;99389.44;;;12.32;44.72
42603;BME280;28233;55.748;48.752;2023-04-04T06:32:13;99388.81;;;12.35;45.27
42603;BME280;28233;55.748;48.752;2023-04-04T06:34:17;99391.34;;;12.40;45.24
42603;BME280;28233;55.748;48.752;2023-04-04T06:36:22;99392.88;;;12.50;44.60
42603;BME280;28233;55.748;48.752;2023-04-04T06:38:24;99390.38;;;12.57;44.18
42603;BME280;28233;55.748;48.752;2023-04-04T06:40:29;99389.84;;;12.64;44.39
42603;BME280;28233;55.748;48.752;2023-04-04T06:42:31;99395.63;;;12.71;43.91
42603;BME280;28233;55.748;48.752;2023-04-04T06:44:34;99384.72;;;12.75;44.11
42603;BME280;28233;55.748;48.752;2023-04-04T06:46:37;99388.88;;;12.81;43.59
42603;BME280;28233;55.748;48.752;2023-04-04T06:48:40;99391.41;;;12.86;43.74
42603;BME280;28233;55.748;48.752;2023-04-04T06:50:43;99386.03;;;12.89;43.49
42603;BME280;28233;55.748;48.752;2023-04-04T06:52:47;99379.97;;;12.96;43.10
42603;BME280;28233;55.748;48.752;2023-04-04T06:54:50;99388.81;;;13.02;43.17
42603;BME280;28233;55.748;48.752;2023-04-04T06:56:53;99386.63;;;13.07;42.77
42603;BME280;28233;55.748;48.752;2023-04-04T06:58:55;99376.53;;;13.11;41.68
42603;BME280;28233;55.748;48.752;2023-04-04T07:01:00;99378.25;;;13.16;42.10
42603;BME280;28233;55.748;48.752;2023-04-04T07:03:03;99373.78;;;13.24;41.97
42603;BME280;28233;55.748;48.752;2023-04-04T07:05:06;99377.72;;;13.35;41.82
42603;BME280;28233;55.748;48.752;2023-04-04T07:07:10;99372.81;;;13.41;41.87
42603;BME280;28233;55.748;48.752;2023-04-04T07:09:14;99369.91;;;13.49;41.53
42603;BME280;28233;55.748;48.752;2023-04-04T07:11:30;99370.63;;;13.59;40.84
42603;BME280;28233;55.748;48.752;2023-04-04T07:13:33;99368.53;;;13.68;40.43
42603;BME280;28233;55.748;48.752;2023-04-04T07:15:36;99370.16;;;13.81;40.79
42603;BME280;28233;55.748;48.752;2023-04-04T07:17:39;99366.81;;;13.88;40.55
42603;BME280;28233;55.748;48.752;2023-04-04T07:19:42;99371.38;;;13.96;40.34
42603;BME280;28233;55.748;48.752;2023-04-04T07:21:45;99370.34;;;14.01;39.42
42603;BME280;28233;55.748;48.752;2023-04-04T07:23:48;99371.81;;;14.10;40.42
42603;BME280;28233;55.748;48.752;2023-04-04T07:25:52;99374.00;;;14.17;40.00
42603;BME280;28233;55.748;48.752;2023-04-04T07:27:54;99382.94;;;14.26;41.19
42603;BME280;28233;55.748;48.752;2023-04-04T07:30:13;99390.28;;;14.34;40.32
42603;BME280;28233;55.748;48.752;2023-04-04T07:32:16;99380.25;;;14.42;39.55
42603;BME280;28233;55.748;48.752;2023-04-04T07:34:19;99383.81;;;14.55;38.95
42603;BME280;28233;55.748;48.752;2023-04-04T07:36:22;99386.75;;;14.62;38.53
42603;BME280;28233;55.748;48.752;2023-04-04T07:38:25;99374.31;;;14.68;38.85
42603;BME280;28233;55.748;48.752;2023-04-04T07:40:29;99378.88;;;14.76;38.25
42603;BME280;28233;55.748;48.752;2023-04-04T07:42:32;99386.22;;;14.85;38.23
42603;BME280;28233;55.748;48.752;2023-04-04T07:44:34;99387.31;;;14.96;37.86
42603;BME280;28233;55.748;48.752;2023-04-04T07:46:37;99380.44;;;15.06;37.25
42603;BME280;28233;55.748;48.752;2023-04-04T07:48:40;99377.31;;;15.07;36.44
42603;BME280;28233;55.748;48.752;2023-04-04T07:50:43;99385.78;;;15.14;36.56
42603;BME280;28233;55.748;48.752;2023-04-04T07:52:49;99388.78;;;15.21;36.33
42603;BME280;28233;55.748;48.752;2023-04-04T07:54:57;99391.28;;;15.27;36.01
42603;BME280;28233;55.748;48.752;2023-04-04T07:57:01;99381.63;;;15.36;37.00
42603;BME280;28233;55.748;48.752;2023-04-04T07:59:07;99381.00;;;15.43;36.01
42603;BME280;28233;55.748;48.752;2023-04-04T08:01:10;99379.03;;;15.43;36.15
42603;BME280;28233;55.748;48.752;2023-04-04T08:03:13;99380.81;;;15.52;36.45
42603;BME280;28233;55.748;48.752;2023-04-04T08:05:16;99375.03;;;15.57;36.45
42603;BME280;28233;55.748;48.752;2023-04-04T08:07:19;99376.25;;;15.59;35.41
42603;BME280;28233;55.748;48.752;2023-04-04T08:09:21;99380.72;;;15.64;35.04
42603;BME280;28233;55.748;48.752;2023-04-04T08:11:24;99376.88;;;15.69;35.06
42603;BME280;28233;55.748;48.752;2023-04-04T08:13:27;99386.91;;;15.73;34.96
42603;BME280;28233;55.748;48.752;2023-04-04T08:15:30;99374.31;;;15.76;34.63
42603;BME280;28233;55.748;48.752;2023-04-04T08:17:32;99369.44;;;15.89;34.38
42603;BME280;28233;55.748;48.752;2023-04-04T08:19:35;99374.34;;;15.95;34.12
42603;BME280;28233;55.748;48.752;2023-04-04T08:21:38;99372.53;;;16.03;33.59
42603;BME280;28233;55.748;48.752;2023-04-04T08:23:40;99368.63;;;16.04;34.08
42603;BME280;28233;55.748;48.752;2023-04-04T08:25:45;99367.88;;;16.07;34.12
42603;BME280;28233;55.748;48.752;2023-04-04T08:27:48;99371.59;;;16.15;33.80
42603;BME280;28233;55.748;48.752;2023-04-04T08:29:51;99357.53;;;16.23;33.92
42603;BME280;28233;55.748;48.752;2023-04-04T08:31:53;99364.19;;;16.38;33.97
42603;BME280;28233;55.748;48.752;2023-04-04T08:33:56;99370.66;;;16.46;34.34
42603;BME280;28233;55.748;48.752;2023-04-04T08:35:59;99375.94;;;16.51;33.46
42603;BME280;28233;55.748;48.752;2023-04-04T08:38:02;99360.59;;;16.57;34.27
42603;BME280;28233;55.748;48.752;2023-04-04T08:40:07;99362.81;;;16.67;33.96
42603;BME280;28233;55.748;48.752;2023-04-04T08:42:11;99381.47;;;16.70;33.69
42603;BME280;28233;55.748;48.752;2023-04-04T08:44:16;99361.47;;;16.61;33.79
42603;BME280;28233;55.748;48.752;2023-04-04T08:46:24;99369.59;;;16.70;33.88
42603;BME280;28233;55.748;48.752;2023-04-04T08:48:28;99382.28;;;16.71;33.16
42603;BME280;28233;55.748;48.752;2023-04-04T08:50:36;99371.19;;;16.71;32.97
42603;BME280;28233;55.748;48.752;2023-04-04T08:52:41;99374.44;;;16.77;33.07
42603;BME280;28233;55.748;48.752;2023-04-04T08:54:46;99370.19;;;16.79;33.83
42603;BME280;28233;55.748;48.752;2023-04-04T08:56:49;99371.56;;;16.89;33.47
42603;BME280;28233;55.748;48.752;2023-04-04T08:58:54;99364.16;;;16.97;33.43
42603;BME280;28233;55.748;48.752;2023-04-04T09:00:57;99368.28;;;17.06;32.94
42603;BME280;28233;55.748;48.752;2023-04-04T09:03:11;99367.56;;;17.09;32.88
42603;BME280;28233;55.748;48.752;2023-04-04T09:05:16;99369.66;;;17.16;32.66
42603;BME280;28233;55.748;48.752;2023-04-04T09:07:19;99364.53;;;17.18;32.69
42603;BME280;28233;55.748;48.752;2023-04-04T09:09:23;99364.22;;;17.23;31.84
42603;BME280;28233;55.748;48.752;2023-04-04T09:11:27;99373.13;;;17.32;32.22
42603;BME280;28233;55.748;48.752;2023-04-04T09:13:32;99370.84;;;17.38;32.01
42603;BME280;28233;55.748;48.752;2023-04-04T09:15:39;99378.00;;;17.39;31.58
42603;BME280;28233;55.748;48.752;2023-04-04T09:17:43;99368.47;;;17.40;31.77
42603;BME280;28233;55.748;48.752;2023-04-04T09:19:46;99373.63;;;17.38;32.24
42603;BME280;28233;55.748;48.752;2023-04-04T09:21:49;99374.09;;;17.44;30.97
42603;BME280;28233;55.748;48.752;2023-04-04T09:23:58;99386.94;;;17.52;31.28
42603;BME280;28233;55.748;48.752;2023-04-04T09:26:01;99383.88;;;17.61;30.73
42603;BME280;28233;55.748;48.752;2023-04-04T09:28:06;99364.84;;;17.59;30.63
42603;BME280;28233;55.748;48.752;2023-04-04T09:30:09;99369.88;;;17.53;30.67
42603;BME280;28233;55.748;48.752;2023-04-04T09:32:15;99359.53;;;17.50;30.96
42603;BME280;28233;55.748;48.752;2023-04-04T09:34:19;99382.56;;;17.51;30.62
42603;BME280;28233;55.748;48.752;2023-04-04T09:36:24;99371.06;;;17.52;30.59
42603;BME280;28233;55.748;48.752;2023-04-04T09:38:29;99374.84;;;17.64;31.23
42603;BME280;28233;55.748;48.752;2023-04-04T09:40:34;99375.75;;;17.71;31.08
42603;BME280;28233;55.748;48.752;2023-04-04T09:42:38;99382.19;;;17.79;29.18
42603;BME280;28233;55.748;48.752;2023-04-04T09:44:40;99378.69;;;17.82;29.88
42603;BME280;28233;55.748;48.752;2023-04-04T09:46:43;99380.47;;;17.94;31.35
42603;BME280;28233;55.748;48.752;2023-04-04T09:48:49;99376.22;;;18.04;32.03
42603;BME280;28233;55.748;48.752;2023-04-04T09:50:52;99380.66;;;18.08;30.12
42603;BME280;28233;55.748;48.752;2023-04-04T09:52:56;99382.13;;;17.99;28.62
42603;BME280;28233;55.748;48.752;2023-04-04T09:55:04;99382.13;;;17.99;29.42
42603;BME280;28233;55.748;48.752;2023-04-04T09:57:07;99386.22;;;18.08;30.59
42603;BME280;28233;55.748;48.752;2023-04-04T09:59:11;99381.59;;;18.16;30.14
42603;BME280;28233;55.748;48.752;2023-04-04T10:01:16;99377.94;;;18.12;28.59
42603;BME280;28233;55.748;48.752;2023-04-04T10:03:23;99374.38;;;18.11;28.75
42603;BME280;28233;55.748;48.752;2023-04-04T10:05:26;99372.75;;;18.10;28.88
42603;BME280;28233;55.748;48.752;2023-04-04T10:07:30;99371.34;;;18.24;29.08
42603;BME280;28233;55.748;48.752;2023-04-04T10:09:36;99365.94;;;18.34;28.89
42603;BME280;28233;55.748;48.752;2023-04-04T10:11:39;99369.97;;;18.41;27.86
42603;BME280;28233;55.748;48.752;2023-04-04T10:13:42;99369.63;;;18.46;28.28
42603;BME280;28233;55.748;48.752;2023-04-04T10:15:48;99363.69;;;18.47;29.11
42603;BME280;28233;55.748;48.752;2023-04-04T10:17:52;99370.94;;;18.55;29.61
42603;BME280;28233;55.748;48.752;2023-04-04T10:19:59;99364.28;;;18.64;27.93
42603;BME280;28233;55.748;48.752;2023-04-04T10:22:05;99364.28;;;18.64;28.54
42603;BME280;28233;55.748;48.752;2023-04-04T10:24:08;99365.22;;;18.75;28.30
42603;BME280;28233;55.748;48.752;2023-04-04T10:26:12;99366.97;;;18.87;27.99
42603;BME280;28233;55.748;48.752;2023-04-04T10:28:16;99370.56;;;18.87;27.69
42603;BME280;28233;55.748;48.752;2023-04-04T10:30:20;99365.06;;;18.94;29.02
42603;BME280;28233;55.748;48.752;2023-04-04T10:32:49;99363.63;;;19.11;29.10
42603;BME280;28233;55.748;48.752;2023-04-04T10:35:01;99357.31;;;19.18;27.68
42603;BME280;28233;55.748;48.752;2023-04-04T10:37:08;99360.56;;;19.23;28.81
42603;BME280;28233;55.748;48.752;2023-04-04T10:39:23;99362.13;;;19.21;27.01
42603;BME280;28233;55.748;48.752;2023-04-04T10:41:29;99366.91;;;19.20;27.11
42603;BME280;28233;55.748;48.752;2023-04-04T10:43:34;99364.09;;;19.17;26.88
42603;BME280;28233;55.748;48.752;2023-04-04T10:45:39;99365.31;;;19.23;26.88
42603;BME280;28233;55.748;48.752;2023-04-04T10:47:44;99356.63;;;19.28;28.08
42603;BME280;28233;55.748;48.752;2023-04-04T10:49:48;99361.50;;;19.38;28.37
42603;BME280;28233;55.748;48.752;2023-04-04T10:51:52;99360.00;;;19.52;27.05
42603;BME280;28233;55.748;48.752;2023-04-04T10:53:58;99357.66;;;19.57;26.87